Aviation Digital Data Service (ADDS)

Output produced by METARs form (2335 UTC 26 February 2020)
found at http://www.aviationweather.gov/metar/data/
 
METAR text: LOWS 262320Z AUTO 29011KT 5000 -SHSN FEW009 SCT022 BKN030 01/M02 Q1008
Conditions at: LOWS (SALZBURG AIRPORT, AT) observed 2320 UTC 26 February 2020
Temperature: 1.0°C (34°F)
Dewpoint: -2.0°C (28°F) [RH = 80%]
Pressure (altimeter): 29.76 inches Hg (1008.0 mb)
Winds: from the WNW (290 degrees) at 13 MPH (11 knots; 5.7 m/s)
Visibility: 3 miles ( 5 km)
Ceiling: 3000 feet AGL
Clouds: few clouds at 900 feet AGL
scattered clouds at 2200 feet AGL
broken clouds at 3000 feet AGL
Weather: -SHSN  (light snow showers)

METAR text: LOWS 262250Z AUTO VRB05KT 9999 -SN FEW007 SCT026 BKN034 01/M01 Q1008
Conditions at: LOWS (SALZBURG AIRPORT, AT) observed 2250 UTC 26 February 2020
Temperature: 1.0°C (34°F)
Dewpoint: -1.0°C (30°F) [RH = 86%]
Pressure (altimeter): 29.76 inches Hg (1008.0 mb)
Winds: variable direction winds at 6 MPH (5 knots; 2.6 m/s)
Visibility: 6 or more miles (10+ km)
Ceiling: 3400 feet AGL
Clouds: few clouds at 700 feet AGL
scattered clouds at 2600 feet AGL
broken clouds at 3400 feet AGL
Weather: -SN  (light snow)

METAR text: LOWS 262220Z AUTO VRB02KT 9999 -SHSN FEW008 SCT018 BKN028 00/M01 Q1008
Conditions at: LOWS (SALZBURG AIRPORT, AT) observed 2220 UTC 26 February 2020
Temperature: 0.0°C (32°F)
Dewpoint: -1.0°C (30°F) [RH = 93%]
Pressure (altimeter): 29.76 inches Hg (1008.0 mb)
Winds: variable direction winds at 2 MPH (2 knots; 1.0 m/s)
Visibility: 6 or more miles (10+ km)
Ceiling: 2800 feet AGL
Clouds: few clouds at 800 feet AGL
scattered clouds at 1800 feet AGL
broken clouds at 2800 feet AGL
Weather: -SHSN  (light snow showers)

METAR text: LOWS 262150Z 30008KT 4900 -SHRASN FEW002 SCT009 BKN016 00/M01 Q1008 R15/19//95 BECMG 9999 NSW
Conditions at: LOWS (SALZBURG AIRPORT, AT) observed 2150 UTC 26 February 2020
Temperature: 0.0°C (32°F)
Dewpoint: -1.0°C (30°F) [RH = 93%]
Pressure (altimeter): 29.76 inches Hg (1008.0 mb)
Winds: from the WNW (300 degrees) at 9 MPH (8 knots; 4.1 m/s)
Visibility: 3 miles ( 5 km)
Ceiling: 1600 feet AGL
Clouds: few clouds at 200 feet AGL
scattered clouds at 900 feet AGL
broken clouds at 1600 feet AGL
Weather: -SHRA -SHSN  (light rain showers, light snow showers)

METAR text: LOWS 262120Z 27008KT 230V320 9999 FEW018 SCT032 BKN044 02/M03 Q1007 R15/19//95 NOSIG
Conditions at: LOWS (SALZBURG AIRPORT, AT) observed 2120 UTC 26 February 2020
Temperature: 2.0°C (36°F)
Dewpoint: -3.0°C (27°F) [RH = 69%]
Pressure (altimeter): 29.73 inches Hg (1007.0 mb)
Winds: from the W (270 degrees) at 9 MPH (8 knots; 4.1 m/s)
Visibility: 6 or more miles (10+ km)
Ceiling: 4400 feet AGL
Clouds: few clouds at 1800 feet AGL
scattered clouds at 3200 feet AGL
broken clouds at 4400 feet AGL
Weather: no significant weather observed at this time

METAR text: LOWS 262050Z 26011KT 220V310 9999 -SHRA FEW012 SCT040 BKN070 02/M03 Q1007 R15/19//95 TEMPO 4000 SHRASN
Conditions at: LOWS (SALZBURG AIRPORT, AT) observed 2050 UTC 26 February 2020
Temperature: 2.0°C (36°F)
Dewpoint: -3.0°C (27°F) [RH = 69%]
Pressure (altimeter): 29.73 inches Hg (1007.0 mb)
Winds: from the W (260 degrees) at 13 MPH (11 knots; 5.7 m/s)
Visibility: 6 or more miles (10+ km)
Ceiling: 7000 feet AGL
Clouds: few clouds at 1200 feet AGL
scattered clouds at 4000 feet AGL
broken clouds at 7000 feet AGL
Weather: -SHRA  (light rain showers)

METAR text: LOWS 262020Z 29014KT 240V320 9999 FEW032 SCT040 BKN050 03/M05 Q1006 R15/2///95 NOSIG
Conditions at: LOWS (SALZBURG AIRPORT, AT) observed 2020 UTC 26 February 2020
Temperature: 3.0°C (37°F)
Dewpoint: -5.0°C (23°F) [RH = 56%]
Pressure (altimeter): 29.70 inches Hg (1006.0 mb)
Winds: from the WNW (290 degrees) at 16 MPH (14 knots; 7.2 m/s)
Visibility: 6 or more miles (10+ km)
Ceiling: 5000 feet AGL
Clouds: few clouds at 3200 feet AGL
scattered clouds at 4000 feet AGL
broken clouds at 5000 feet AGL
Weather: no significant weather observed at this time

METAR text: LOWS 261950Z 28012G23KT 250V310 9999 FEW050 BKN060 03/M06 Q1006 R15/2///95 NOSIG
Conditions at: LOWS (SALZBURG AIRPORT, AT) observed 1950 UTC 26 February 2020
Temperature: 3.0°C (37°F)
Dewpoint: -6.0°C (21°F) [RH = 52%]
Pressure (altimeter): 29.70 inches Hg (1006.0 mb)
Winds: from the W (280 degrees) at 14 MPH (12 knots; 6.2 m/s)
gusting to 26 MPH (23 knots; 11.8 m/s)
Visibility: 6 or more miles (10+ km)
Ceiling: 6000 feet AGL
Clouds: few clouds at 5000 feet AGL
broken clouds at 6000 feet AGL
Weather: no significant weather observed at this time

METAR text: LOWS 261920Z 26011KT 240V300 9999 FEW050 BKN060 03/M05 Q1005 R15/2///95 NOSIG
Conditions at: LOWS (SALZBURG AIRPORT, AT) observed 1920 UTC 26 February 2020
Temperature: 3.0°C (37°F)
Dewpoint: -5.0°C (23°F) [RH = 56%]
Pressure (altimeter): 29.68 inches Hg (1005.0 mb)
Winds: from the W (260 degrees) at 13 MPH (11 knots; 5.7 m/s)
Visibility: 6 or more miles (10+ km)
Ceiling: 6000 feet AGL
Clouds: few clouds at 5000 feet AGL
broken clouds at 6000 feet AGL
Weather: no significant weather observed at this time

METAR text: LOWS 261850Z 27009KT 210V320 9999 FEW050 BKN060 03/M06 Q1005 R15/2///95 NOSIG
Conditions at: LOWS (SALZBURG AIRPORT, AT) observed 1850 UTC 26 February 2020
Temperature: 3.0°C (37°F)
Dewpoint: -6.0°C (21°F) [RH = 52%]
Pressure (altimeter): 29.68 inches Hg (1005.0 mb)
Winds: from the W (270 degrees) at 10 MPH (9 knots; 4.6 m/s)
Visibility: 6 or more miles (10+ km)
Ceiling: 6000 feet AGL
Clouds: few clouds at 5000 feet AGL
broken clouds at 6000 feet AGL
Weather: no significant weather observed at this time

METAR text: LOWS 261820Z 28009KT 240V310 9999 FEW050 BKN060 03/M06 Q1005 R15/2///95 NOSIG
Conditions at: LOWS (SALZBURG AIRPORT, AT) observed 1820 UTC 26 February 2020
Temperature: 3.0°C (37°F)
Dewpoint: -6.0°C (21°F) [RH = 52%]
Pressure (altimeter): 29.68 inches Hg (1005.0 mb)
Winds: from the W (280 degrees) at 10 MPH (9 knots; 4.6 m/s)
Visibility: 6 or more miles (10+ km)
Ceiling: 6000 feet AGL
Clouds: few clouds at 5000 feet AGL
broken clouds at 6000 feet AGL
Weather: no significant weather observed at this time

METAR text: LOWS 261750Z 28011KT 240V310 9999 FEW050 BKN060 03/M05 Q1005 R15/2///95 NOSIG
Conditions at: LOWS (SALZBURG AIRPORT, AT) observed 1750 UTC 26 February 2020
Temperature: 3.0°C (37°F)
Dewpoint: -5.0°C (23°F) [RH = 56%]
Pressure (altimeter): 29.68 inches Hg (1005.0 mb)
Winds: from the W (280 degrees) at 13 MPH (11 knots; 5.7 m/s)
Visibility: 6 or more miles (10+ km)
Ceiling: 6000 feet AGL
Clouds: few clouds at 5000 feet AGL
broken clouds at 6000 feet AGL
Weather: no significant weather observed at this time

METAR text: LOWS 261720Z 27010KT 220V310 9999 FEW043 BKN060 03/M05 Q1004 R15/2///95 NOSIG
Conditions at: LOWS (SALZBURG AIRPORT, AT) observed 1720 UTC 26 February 2020
Temperature: 3.0°C (37°F)
Dewpoint: -5.0°C (23°F) [RH = 56%]
Pressure (altimeter): 29.65 inches Hg (1004.0 mb)
Winds: from the W (270 degrees) at 12 MPH (10 knots; 5.1 m/s)
Visibility: 6 or more miles (10+ km)
Ceiling: 6000 feet AGL
Clouds: few clouds at 4300 feet AGL
broken clouds at 6000 feet AGL
Weather: no significant weather observed at this time

METAR text: LOWS 261650Z 27011KT 240V300 9999 FEW043 BKN060 03/M04 Q1004 R15/2///95 NOSIG
Conditions at: LOWS (SALZBURG AIRPORT, AT) observed 1650 UTC 26 February 2020
Temperature: 3.0°C (37°F)
Dewpoint: -4.0°C (25°F) [RH = 60%]
Pressure (altimeter): 29.65 inches Hg (1004.0 mb)
Winds: from the W (270 degrees) at 13 MPH (11 knots; 5.7 m/s)
Visibility: 6 or more miles (10+ km)
Ceiling: 6000 feet AGL
Clouds: few clouds at 4300 feet AGL
broken clouds at 6000 feet AGL
Weather: no significant weather observed at this time

METAR text: LOWS 261620Z 28009KT 250V320 9999 FEW022 BKN048 02/M02 Q1004 R15/2///95 NOSIG
Conditions at: LOWS (SALZBURG AIRPORT, AT) observed 1620 UTC 26 February 2020
Temperature: 2.0°C (36°F)
Dewpoint: -2.0°C (28°F) [RH = 75%]
Pressure (altimeter): 29.65 inches Hg (1004.0 mb)
Winds: from the W (280 degrees) at 10 MPH (9 knots; 4.6 m/s)
Visibility: 6 or more miles (10+ km)
Ceiling: 4800 feet AGL
Clouds: few clouds at 2200 feet AGL
broken clouds at 4800 feet AGL
Weather: no significant weather observed at this time

METAR text: LOWS 261550Z 32011KT 9999 FEW015 SCT026 BKN038 01/M01 Q1004 R15/2///95 NOSIG
Conditions at: LOWS (SALZBURG AIRPORT, AT) observed 1550 UTC 26 February 2020
Temperature: 1.0°C (34°F)
Dewpoint: -1.0°C (30°F) [RH = 86%]
Pressure (altimeter): 29.65 inches Hg (1004.0 mb)
Winds: from the NW (320 degrees) at 13 MPH (11 knots; 5.7 m/s)
Visibility: 6 or more miles (10+ km)
Ceiling: 3800 feet AGL
Clouds: few clouds at 1500 feet AGL
scattered clouds at 2600 feet AGL
broken clouds at 3800 feet AGL
Weather: no significant weather observed at this time

METAR text: LOWS 261520Z 30016KT 4000 -SHRASN FEW003 SCT012 BKN020 02/M01 Q1003 TEMPO 9999 NSW
Conditions at: LOWS (SALZBURG AIRPORT, AT) observed 1520 UTC 26 February 2020
Temperature: 2.0°C (36°F)
Dewpoint: -1.0°C (30°F) [RH = 80%]
Pressure (altimeter): 29.62 inches Hg (1003.0 mb)
Winds: from the WNW (300 degrees) at 18 MPH (16 knots; 8.2 m/s)
Visibility: 2.49 miles (4.01 km)
Ceiling: 2000 feet AGL
Clouds: few clouds at 300 feet AGL
scattered clouds at 1200 feet AGL
broken clouds at 2000 feet AGL
Weather: -SHRA -SHSN  (light rain showers, light snow showers)

METAR text: LOWS 261450Z 30009KT 9999 FEW011 SCT040 BKN060 01/M01 Q1002 RESN TEMPO 4000 -SHSNRA
Conditions at: LOWS (SALZBURG AIRPORT, AT) observed 1450 UTC 26 February 2020
Temperature: 1.0°C (34°F)
Dewpoint: -1.0°C (30°F) [RH = 86%]
Pressure (altimeter): 29.59 inches Hg (1002.0 mb)
Winds: from the WNW (300 degrees) at 10 MPH (9 knots; 4.6 m/s)
Visibility: 6 or more miles (10+ km)
Ceiling: 6000 feet AGL
Clouds: few clouds at 1100 feet AGL
scattered clouds at 4000 feet AGL
broken clouds at 6000 feet AGL
Weather: no significant weather observed at this time

METAR text: LOWS 261420Z 29010KT 260V330 9999 VCSH FEW003 SCT015 FEW020CB BKN028 03/M01 Q1001 TEMPO 2000 SHSNRA
Conditions at: LOWS (SALZBURG AIRPORT, AT) observed 1420 UTC 26 February 2020
Temperature: 3.0°C (37°F)
Dewpoint: -1.0°C (30°F) [RH = 75%]
Pressure (altimeter): 29.56 inches Hg (1001.0 mb)
Winds: from the WNW (290 degrees) at 12 MPH (10 knots; 5.1 m/s)
Visibility: 6 or more miles (10+ km)
Ceiling: 2800 feet AGL
Clouds: few clouds at 300 feet AGL
scattered clouds at 1500 feet AGL
few clouds at 2000 feet AGL
broken clouds at 2800 feet AGL
Weather: VCSH  (showers in vicinity)

METAR text: LOWS 261350Z 28015G27KT 250V320 9999 VCSH FEW018 SCT040 BKN050 05/M03 Q1000 TEMPO 4000 SHSNRA
Conditions at: LOWS (SALZBURG AIRPORT, AT) observed 1350 UTC 26 February 2020
Temperature: 5.0°C (41°F)
Dewpoint: -3.0°C (27°F) [RH = 56%]
Pressure (altimeter): 29.53 inches Hg (1000.0 mb)
Winds: from the W (280 degrees) at 17 MPH (15 knots; 7.7 m/s)
gusting to 31 MPH (27 knots; 13.9 m/s)
Visibility: 6 or more miles (10+ km)
Ceiling: 5000 feet AGL
Clouds: few clouds at 1800 feet AGL
scattered clouds at 4000 feet AGL
broken clouds at 5000 feet AGL
Weather: VCSH  (showers in vicinity)

METAR text: LOWS 261320Z 29012G22KT 230V320 9999 VCSH FEW016 BKN050 06/M04 Q0999 TEMPO 4000 SHSNRA
Conditions at: LOWS (SALZBURG AIRPORT, AT) observed 1320 UTC 26 February 2020
Temperature: 6.0°C (43°F)
Dewpoint: -4.0°C (25°F) [RH = 49%]
Pressure (altimeter): 29.50 inches Hg (999.0 mb)
Winds: from the WNW (290 degrees) at 14 MPH (12 knots; 6.2 m/s)
gusting to 25 MPH (22 knots; 11.3 m/s)
Visibility: 6 or more miles (10+ km)
Ceiling: 5000 feet AGL
Clouds: few clouds at 1600 feet AGL
broken clouds at 5000 feet AGL
Weather: VCSH  (showers in vicinity)

METAR text: LOWS 261250Z 26006KT 210V330 9999 VCSH SCT040 BKN050 06/M03 Q0999 TEMPO 4000 SHSNRA
Conditions at: LOWS (SALZBURG AIRPORT, AT) observed 1250 UTC 26 February 2020
Temperature: 6.0°C (43°F)
Dewpoint: -3.0°C (27°F) [RH = 52%]
Pressure (altimeter): 29.50 inches Hg (999.0 mb)
Winds: from the W (260 degrees) at 7 MPH (6 knots; 3.1 m/s)
Visibility: 6 or more miles (10+ km)
Ceiling: 5000 feet AGL
Clouds: scattered clouds at 4000 feet AGL
broken clouds at 5000 feet AGL
Weather: VCSH  (showers in vicinity)

METAR text: LOWS 261220Z 24006KT 200V290 9999 FEW045 SCT050 BKN060 05/M02 Q0999 TEMPO 30015KT 4500 SHRASN
Conditions at: LOWS (SALZBURG AIRPORT, AT) observed 1220 UTC 26 February 2020
Temperature: 5.0°C (41°F)
Dewpoint: -2.0°C (28°F) [RH = 60%]
Pressure (altimeter): 29.50 inches Hg (999.0 mb)
Winds: from the WSW (240 degrees) at 7 MPH (6 knots; 3.1 m/s)
Visibility: 6 or more miles (10+ km)
Ceiling: 6000 feet AGL
Clouds: few clouds at 4500 feet AGL
scattered clouds at 5000 feet AGL
broken clouds at 6000 feet AGL
Weather: no significant weather observed at this time

METAR text: LOWS 261150Z 29008KT 260V320 9999 VCSH FEW046 SCT050 BKN060 06/M04 Q0999 NOSIG
Conditions at: LOWS (SALZBURG AIRPORT, AT) observed 1150 UTC 26 February 2020
Temperature: 6.0°C (43°F)
Dewpoint: -4.0°C (25°F) [RH = 49%]
Pressure (altimeter): 29.50 inches Hg (999.0 mb)
Winds: from the WNW (290 degrees) at 9 MPH (8 knots; 4.1 m/s)
Visibility: 6 or more miles (10+ km)
Ceiling: 6000 feet AGL
Clouds: few clouds at 4600 feet AGL
scattered clouds at 5000 feet AGL
broken clouds at 6000 feet AGL
Weather: VCSH  (showers in vicinity)

METAR text: LOWS 261120Z 30014KT 9999 SCT050 BKN070 06/M04 Q0999 NOSIG
Conditions at: LOWS (SALZBURG AIRPORT, AT) observed 1120 UTC 26 February 2020
Temperature: 6.0°C (43°F)
Dewpoint: -4.0°C (25°F) [RH = 49%]
Pressure (altimeter): 29.50 inches Hg (999.0 mb)
Winds: from the WNW (300 degrees) at 16 MPH (14 knots; 7.2 m/s)
Visibility: 6 or more miles (10+ km)
Ceiling: 7000 feet AGL
Clouds: scattered clouds at 5000 feet AGL
broken clouds at 7000 feet AGL
Weather: no significant weather observed at this time

METAR text: LOWS 261050Z 31008KT 9999 FEW040 BKN060 06/M03 Q0999 NOSIG
Conditions at: LOWS (SALZBURG AIRPORT, AT) observed 1050 UTC 26 February 2020
Temperature: 6.0°C (43°F)
Dewpoint: -3.0°C (27°F) [RH = 52%]
Pressure (altimeter): 29.50 inches Hg (999.0 mb)
Winds: from the NW (310 degrees) at 9 MPH (8 knots; 4.1 m/s)
Visibility: 6 or more miles (10+ km)
Ceiling: 6000 feet AGL
Clouds: few clouds at 4000 feet AGL
broken clouds at 6000 feet AGL
Weather: no significant weather observed at this time

METAR text: LOWS 261020Z 33010KT 9999 FEW040 BKN060 05/M03 Q1000 NOSIG
Conditions at: LOWS (SALZBURG AIRPORT, AT) observed 1020 UTC 26 February 2020
Temperature: 5.0°C (41°F)
Dewpoint: -3.0°C (27°F) [RH = 56%]
Pressure (altimeter): 29.53 inches Hg (1000.0 mb)
Winds: from the NNW (330 degrees) at 12 MPH (10 knots; 5.1 m/s)
Visibility: 6 or more miles (10+ km)
Ceiling: 6000 feet AGL
Clouds: few clouds at 4000 feet AGL
broken clouds at 6000 feet AGL
Weather: no significant weather observed at this time

METAR text: LOWS 260950Z 32011KT 9999 FEW040 SCT050 BKN100 05/M03 Q1000 NOSIG
Conditions at: LOWS (SALZBURG AIRPORT, AT) observed 0950 UTC 26 February 2020
Temperature: 5.0°C (41°F)
Dewpoint: -3.0°C (27°F) [RH = 56%]
Pressure (altimeter): 29.53 inches Hg (1000.0 mb)
Winds: from the NW (320 degrees) at 13 MPH (11 knots; 5.7 m/s)
Visibility: 6 or more miles (10+ km)
Ceiling: 10000 feet AGL
Clouds: few clouds at 4000 feet AGL
scattered clouds at 5000 feet AGL
broken clouds at 10000 feet AGL
Weather: no significant weather observed at this time

METAR text: LOWS 260920Z 29013KT 270V330 9999 SCT040 BKN120 04/M04 Q1000 NOSIG
Conditions at: LOWS (SALZBURG AIRPORT, AT) observed 0920 UTC 26 February 2020
Temperature: 4.0°C (39°F)
Dewpoint: -4.0°C (25°F) [RH = 56%]
Pressure (altimeter): 29.53 inches Hg (1000.0 mb)
Winds: from the WNW (290 degrees) at 15 MPH (13 knots; 6.7 m/s)
Visibility: 6 or more miles (10+ km)
Ceiling: 12000 feet AGL
Clouds: scattered clouds at 4000 feet AGL
broken clouds at 12000 feet AGL
Weather: no significant weather observed at this time

METAR text: LOWS 260850Z 31013G24KT 9999 SCT040 BKN120 04/M04 Q1000 NOSIG
Conditions at: LOWS (SALZBURG AIRPORT, AT) observed 0850 UTC 26 February 2020
Temperature: 4.0°C (39°F)
Dewpoint: -4.0°C (25°F) [RH = 56%]
Pressure (altimeter): 29.53 inches Hg (1000.0 mb)
Winds: from the NW (310 degrees) at 15 MPH (13 knots; 6.7 m/s)
gusting to 28 MPH (24 knots; 12.3 m/s)
Visibility: 6 or more miles (10+ km)
Ceiling: 12000 feet AGL
Clouds: scattered clouds at 4000 feet AGL
broken clouds at 12000 feet AGL
Weather: no significant weather observed at this time

METAR text: LOWS 260820Z 30006KT 260V020 9999 SCT042 BKN120 04/M04 Q1001 TEMPO 30017G27KT
Conditions at: LOWS (SALZBURG AIRPORT, AT) observed 0820 UTC 26 February 2020
Temperature: 4.0°C (39°F)
Dewpoint: -4.0°C (25°F) [RH = 56%]
Pressure (altimeter): 29.56 inches Hg (1001.0 mb)
Winds: from the WNW (300 degrees) at 7 MPH (6 knots; 3.1 m/s)
Visibility: 6 or more miles (10+ km)
Ceiling: 12000 feet AGL
Clouds: scattered clouds at 4200 feet AGL
broken clouds at 12000 feet AGL
Weather: no significant weather observed at this time

METAR text: LOWS 260750Z 30008KT 260V340 9999 FEW038 BKN120 04/M03 Q1001 TEMPO 30018G30KT
Conditions at: LOWS (SALZBURG AIRPORT, AT) observed 0750 UTC 26 February 2020
Temperature: 4.0°C (39°F)
Dewpoint: -3.0°C (27°F) [RH = 60%]
Pressure (altimeter): 29.56 inches Hg (1001.0 mb)
Winds: from the WNW (300 degrees) at 9 MPH (8 knots; 4.1 m/s)
Visibility: 6 or more miles (10+ km)
Ceiling: 12000 feet AGL
Clouds: few clouds at 3800 feet AGL
broken clouds at 12000 feet AGL
Weather: no significant weather observed at this time

METAR text: LOWS 260720Z 31016KT 9999 FEW038 BKN120 04/M03 Q1001 NOSIG
Conditions at: LOWS (SALZBURG AIRPORT, AT) observed 0720 UTC 26 February 2020
Temperature: 4.0°C (39°F)
Dewpoint: -3.0°C (27°F) [RH = 60%]
Pressure (altimeter): 29.56 inches Hg (1001.0 mb)
Winds: from the NW (310 degrees) at 18 MPH (16 knots; 8.2 m/s)
Visibility: 6 or more miles (10+ km)
Ceiling: 12000 feet AGL
Clouds: few clouds at 3800 feet AGL
broken clouds at 12000 feet AGL
Weather: no significant weather observed at this time

METAR text: LOWS 260650Z 29019G33KT 240V340 9999 SCT038 BKN100 04/M04 Q1001 NOSIG
Conditions at: LOWS (SALZBURG AIRPORT, AT) observed 0650 UTC 26 February 2020
Temperature: 4.0°C (39°F)
Dewpoint: -4.0°C (25°F) [RH = 56%]
Pressure (altimeter): 29.56 inches Hg (1001.0 mb)
Winds: from the WNW (290 degrees) at 22 MPH (19 knots; 9.8 m/s)
gusting to 38 MPH (33 knots; 17.0 m/s)
Visibility: 6 or more miles (10+ km)
Ceiling: 10000 feet AGL
Clouds: scattered clouds at 3800 feet AGL
broken clouds at 10000 feet AGL
Weather: no significant weather observed at this time

METAR text: LOWS 260620Z 28013G27KT 220V310 9999 SCT038 BKN090 05/M03 Q1000 NOSIG
Conditions at: LOWS (SALZBURG AIRPORT, AT) observed 0620 UTC 26 February 2020
Temperature: 5.0°C (41°F)
Dewpoint: -3.0°C (27°F) [RH = 56%]
Pressure (altimeter): 29.53 inches Hg (1000.0 mb)
Winds: from the W (280 degrees) at 15 MPH (13 knots; 6.7 m/s)
gusting to 31 MPH (27 knots; 13.9 m/s)
Visibility: 6 or more miles (10+ km)
Ceiling: 9000 feet AGL
Clouds: scattered clouds at 3800 feet AGL
broken clouds at 9000 feet AGL
Weather: no significant weather observed at this time

METAR text: LOWS 260550Z 29013KT 9999 SCT040 BKN070 05/M01 Q1000 NOSIG
Conditions at: LOWS (SALZBURG AIRPORT, AT) observed 0550 UTC 26 February 2020
Temperature: 5.0°C (41°F)
Dewpoint: -1.0°C (30°F) [RH = 65%]
Pressure (altimeter): 29.53 inches Hg (1000.0 mb)
Winds: from the WNW (290 degrees) at 15 MPH (13 knots; 6.7 m/s)
Visibility: 6 or more miles (10+ km)
Ceiling: 7000 feet AGL
Clouds: scattered clouds at 4000 feet AGL
broken clouds at 7000 feet AGL
Weather: no significant weather observed at this time

METAR text: LOWS 260520Z 31010KT 270V330 9999 FEW012 SCT045 BKN080 05/M00 Q0999 TEMPO 29020G30KT
Conditions at: LOWS (SALZBURG AIRPORT, AT) observed 0520 UTC 26 February 2020
Temperature: 5.0°C (41°F)
Dewpoint: 0.0°C (32°F) [RH = 70%]
Pressure (altimeter): 29.50 inches Hg (999.0 mb)
Winds: from the NW (310 degrees) at 12 MPH (10 knots; 5.1 m/s)
Visibility: 6 or more miles (10+ km)
Ceiling: 8000 feet AGL
Clouds: few clouds at 1200 feet AGL
scattered clouds at 4500 feet AGL
broken clouds at 8000 feet AGL
Weather: no significant weather observed at this time

METAR text: LOWS 260450Z 28010KT 250V320 9999 FEW012 BKN040 BKN050 05/01 Q0999 TEMPO 29020G30KT
Conditions at: LOWS (SALZBURG AIRPORT, AT) observed 0450 UTC 26 February 2020
Temperature: 5.0°C (41°F)
Dewpoint: 1.0°C (34°F) [RH = 75%]
Pressure (altimeter): 29.50 inches Hg (999.0 mb)
Winds: from the W (280 degrees) at 12 MPH (10 knots; 5.1 m/s)
Visibility: 6 or more miles (10+ km)
Ceiling: 4000 feet AGL
Clouds: few clouds at 1200 feet AGL
broken clouds at 4000 feet AGL
broken clouds at 5000 feet AGL
Weather: no significant weather observed at this time

METAR text: LOWS 260420Z AUTO 29014G25KT 250V330 7000 -SHRA FEW012 SCT020 BKN042 05/01 Q0999
Conditions at: LOWS (SALZBURG AIRPORT, AT) observed 0420 UTC 26 February 2020
Temperature: 5.0°C (41°F)
Dewpoint: 1.0°C (34°F) [RH = 75%]
Pressure (altimeter): 29.50 inches Hg (999.0 mb)
Winds: from the WNW (290 degrees) at 16 MPH (14 knots; 7.2 m/s)
gusting to 29 MPH (25 knots; 12.9 m/s)
Visibility: 4 miles ( 7 km)
Ceiling: 4200 feet AGL
Clouds: few clouds at 1200 feet AGL
scattered clouds at 2000 feet AGL
broken clouds at 4200 feet AGL
Weather: -SHRA  (light rain showers)

METAR text: LOWS 260350Z AUTO 16007KT 9999 -RA FEW018 SCT044 BKN050 04/02 Q0998
Conditions at: LOWS (SALZBURG AIRPORT, AT) observed 0350 UTC 26 February 2020
Temperature: 4.0°C (39°F)
Dewpoint: 2.0°C (36°F) [RH = 87%]
Pressure (altimeter): 29.47 inches Hg (998.0 mb)
Winds: from the SSE (160 degrees) at 8 MPH (7 knots; 3.6 m/s)
Visibility: 6 or more miles (10+ km)
Ceiling: 5000 feet AGL
Clouds: few clouds at 1800 feet AGL
scattered clouds at 4400 feet AGL
broken clouds at 5000 feet AGL
Weather: -RA  (light rain)

METAR text: LOWS 260320Z AUTO 18008KT 9999 -RA FEW017 SCT024 BKN042 04/02 Q0999
Conditions at: LOWS (SALZBURG AIRPORT, AT) observed 0320 UTC 26 February 2020
Temperature: 4.0°C (39°F)
Dewpoint: 2.0°C (36°F) [RH = 87%]
Pressure (altimeter): 29.50 inches Hg (999.0 mb)
Winds: from the S (180 degrees) at 9 MPH (8 knots; 4.1 m/s)
Visibility: 6 or more miles (10+ km)
Ceiling: 4200 feet AGL
Clouds: few clouds at 1700 feet AGL
scattered clouds at 2400 feet AGL
broken clouds at 4200 feet AGL
Weather: -RA  (light rain)

METAR text: LOWS 260250Z AUTO 19010KT 9999 -RA SCT018 BKN030 04/02 Q0999
Conditions at: LOWS (SALZBURG AIRPORT, AT) observed 0250 UTC 26 February 2020
Temperature: 4.0°C (39°F)
Dewpoint: 2.0°C (36°F) [RH = 87%]
Pressure (altimeter): 29.50 inches Hg (999.0 mb)
Winds: from the S (190 degrees) at 12 MPH (10 knots; 5.1 m/s)
Visibility: 6 or more miles (10+ km)
Ceiling: 3000 feet AGL
Clouds: scattered clouds at 1800 feet AGL
broken clouds at 3000 feet AGL
Weather: -RA  (light rain)

METAR text: LOWS 260220Z AUTO 22008KT 9999 -RA SCT020 BKN028 04/03 Q1000
Conditions at: LOWS (SALZBURG AIRPORT, AT) observed 0220 UTC 26 February 2020
Temperature: 4.0°C (39°F)
Dewpoint: 3.0°C (37°F) [RH = 93%]
Pressure (altimeter): 29.53 inches Hg (1000.0 mb)
Winds: from the SW (220 degrees) at 9 MPH (8 knots; 4.1 m/s)
Visibility: 6 or more miles (10+ km)
Ceiling: 2800 feet AGL
Clouds: scattered clouds at 2000 feet AGL
broken clouds at 2800 feet AGL
Weather: -RA  (light rain)

METAR text: LOWS 260150Z AUTO 25005KT 200V300 9999 -RA SCT020 BKN032 05/02 Q1000
Conditions at: LOWS (SALZBURG AIRPORT, AT) observed 0150 UTC 26 February 2020
Temperature: 5.0°C (41°F)
Dewpoint: 2.0°C (36°F) [RH = 81%]
Pressure (altimeter): 29.53 inches Hg (1000.0 mb)
Winds: from the WSW (250 degrees) at 6 MPH (5 knots; 2.6 m/s)
Visibility: 6 or more miles (10+ km)
Ceiling: 3200 feet AGL
Clouds: scattered clouds at 2000 feet AGL
broken clouds at 3200 feet AGL
Weather: -RA  (light rain)

METAR text: LOWS 260120Z AUTO 24008KT 9999 -RA FEW018 SCT020 BKN030 05/01 Q1001
Conditions at: LOWS (SALZBURG AIRPORT, AT) observed 0120 UTC 26 February 2020
Temperature: 5.0°C (41°F)
Dewpoint: 1.0°C (34°F) [RH = 75%]
Pressure (altimeter): 29.56 inches Hg (1001.0 mb)
Winds: from the WSW (240 degrees) at 9 MPH (8 knots; 4.1 m/s)
Visibility: 6 or more miles (10+ km)
Ceiling: 3000 feet AGL
Clouds: few clouds at 1800 feet AGL
scattered clouds at 2000 feet AGL
broken clouds at 3000 feet AGL
Weather: -RA  (light rain)

METAR text: LOWS 260050Z AUTO 25009KT 210V290 9999 -SHRA FEW018 SCT024 BKN032 05/02 Q1001
Conditions at: LOWS (SALZBURG AIRPORT, AT) observed 0050 UTC 26 February 2020
Temperature: 5.0°C (41°F)
Dewpoint: 2.0°C (36°F) [RH = 81%]
Pressure (altimeter): 29.56 inches Hg (1001.0 mb)
Winds: from the WSW (250 degrees) at 10 MPH (9 knots; 4.6 m/s)
Visibility: 6 or more miles (10+ km)
Ceiling: 3200 feet AGL
Clouds: few clouds at 1800 feet AGL
scattered clouds at 2400 feet AGL
broken clouds at 3200 feet AGL
Weather: -SHRA  (light rain showers)

METAR text: LOWS 260020Z AUTO 28013G23KT 240V300 9999 -SHRA //////CB FEW030 SCT036 BKN050 07/01 Q1001
Conditions at: LOWS (SALZBURG AIRPORT, AT) observed 0020 UTC 26 February 2020
Temperature: 7.0°C (45°F)
Dewpoint: 1.0°C (34°F) [RH = 66%]
Pressure (altimeter): 29.56 inches Hg (1001.0 mb)
Winds: from the W (280 degrees) at 15 MPH (13 knots; 6.7 m/s)
gusting to 26 MPH (23 knots; 11.8 m/s)
Visibility: 6 or more miles (10+ km)
Ceiling: 5000 feet AGL
Clouds: few clouds at 3000 feet AGL
scattered clouds at 3600 feet AGL
broken clouds at 5000 feet AGL
Weather: -SHRA  (light rain showers)

METAR text: LOWS 252350Z AUTO VRB05KT 9999 FEW034 OVC060 08/02 Q1000
Conditions at: LOWS (SALZBURG AIRPORT, AT) observed 2350 UTC 25 February 2020
Temperature: 8.0°C (46°F)
Dewpoint: 2.0°C (36°F) [RH = 66%]
Pressure (altimeter): 29.53 inches Hg (1000.0 mb)
Winds: variable direction winds at 6 MPH (5 knots; 2.6 m/s)
Visibility: 6 or more miles (10+ km)
Ceiling: 6000 feet AGL
Clouds: few clouds at 3400 feet AGL
overcast cloud deck at 6000 feet AGL
Weather: no significant weather observed at this time

METAR text: LOWS 252320Z AUTO 12003KT 090V150 9999 -SHRA FEW036 SCT038 BKN050 06/05 Q1000
Conditions at: LOWS (SALZBURG AIRPORT, AT) observed 2320 UTC 25 February 2020
Temperature: 6.0°C (43°F)
Dewpoint: 5.0°C (41°F) [RH = 93%]
Pressure (altimeter): 29.53 inches Hg (1000.0 mb)
Winds: from the ESE (120 degrees) at 3 MPH (3 knots; 1.5 m/s)
Visibility: 6 or more miles (10+ km)
Ceiling: 5000 feet AGL
Clouds: few clouds at 3600 feet AGL
scattered clouds at 3800 feet AGL
broken clouds at 5000 feet AGL
Weather: -SHRA  (light rain showers)

METAR text: LOWS 252250Z AUTO VRB04KT 9999 FEW034 BKN038 06/05 Q1000
Conditions at: LOWS (SALZBURG AIRPORT, AT) observed 2250 UTC 25 February 2020
Temperature: 6.0°C (43°F)
Dewpoint: 5.0°C (41°F) [RH = 93%]
Pressure (altimeter): 29.53 inches Hg (1000.0 mb)
Winds: variable direction winds at 5 MPH (4 knots; 2.1 m/s)
Visibility: 6 or more miles (10+ km)
Ceiling: 3800 feet AGL
Clouds: few clouds at 3400 feet AGL
broken clouds at 3800 feet AGL
Weather: no significant weather observed at this time

METAR text: LOWS 252220Z AUTO 19004KT 140V230 9999 -SHRA FEW034 BKN042 06/04 Q1000
Conditions at: LOWS (SALZBURG AIRPORT, AT) observed 2220 UTC 25 February 2020
Temperature: 6.0°C (43°F)
Dewpoint: 4.0°C (39°F) [RH = 87%]
Pressure (altimeter): 29.53 inches Hg (1000.0 mb)
Winds: from the S (190 degrees) at 5 MPH (4 knots; 2.1 m/s)
Visibility: 6 or more miles (10+ km)
Ceiling: 4200 feet AGL
Clouds: few clouds at 3400 feet AGL
broken clouds at 4200 feet AGL
Weather: -SHRA  (light rain showers)

METAR text: LOWS 252150Z 19006KT 150V230 9999 -SHRA FEW036 SCT044 BKN050 06/04 Q1001
Conditions at: LOWS (SALZBURG AIRPORT, AT) observed 2150 UTC 25 February 2020
Temperature: 6.0°C (43°F)
Dewpoint: 4.0°C (39°F) [RH = 87%]
Pressure (altimeter): 29.56 inches Hg (1001.0 mb)
Winds: from the S (190 degrees) at 7 MPH (6 knots; 3.1 m/s)
Visibility: 6 or more miles (10+ km)
Ceiling: 5000 feet AGL
Clouds: few clouds at 3600 feet AGL
scattered clouds at 4400 feet AGL
broken clouds at 5000 feet AGL
Weather: -SHRA  (light rain showers)

METAR text: LOWS 252120Z VRB03KT 9999 FEW046 SCT060 BKN070 06/04 Q1001 TEMPO RA
Conditions at: LOWS (SALZBURG AIRPORT, AT) observed 2120 UTC 25 February 2020
Temperature: 6.0°C (43°F)
Dewpoint: 4.0°C (39°F) [RH = 87%]
Pressure (altimeter): 29.56 inches Hg (1001.0 mb)
Winds: variable direction winds at 3 MPH (3 knots; 1.5 m/s)
Visibility: 6 or more miles (10+ km)
Ceiling: 7000 feet AGL
Clouds: few clouds at 4600 feet AGL
scattered clouds at 6000 feet AGL
broken clouds at 7000 feet AGL
Weather: no significant weather observed at this time

METAR text: LOWS 252050Z VRB03KT 9999 -RA FEW042 BKN050 07/04 Q1002 TEMPO RA
Conditions at: LOWS (SALZBURG AIRPORT, AT) observed 2050 UTC 25 February 2020
Temperature: 7.0°C (45°F)
Dewpoint: 4.0°C (39°F) [RH = 81%]
Pressure (altimeter): 29.59 inches Hg (1002.0 mb)
Winds: variable direction winds at 3 MPH (3 knots; 1.5 m/s)
Visibility: 6 or more miles (10+ km)
Ceiling: 5000 feet AGL
Clouds: few clouds at 4200 feet AGL
broken clouds at 5000 feet AGL
Weather: -RA  (light rain)

METAR text: LOWS 252020Z 16006KT 9999 FEW050 BKN060 06/04 Q1002 NOSIG
Conditions at: LOWS (SALZBURG AIRPORT, AT) observed 2020 UTC 25 February 2020
Temperature: 6.0°C (43°F)
Dewpoint: 4.0°C (39°F) [RH = 87%]
Pressure (altimeter): 29.59 inches Hg (1002.0 mb)
Winds: from the SSE (160 degrees) at 7 MPH (6 knots; 3.1 m/s)
Visibility: 6 or more miles (10+ km)
Ceiling: 6000 feet AGL
Clouds: few clouds at 5000 feet AGL
broken clouds at 6000 feet AGL
Weather: no significant weather observed at this time

METAR text: LOWS 251950Z 36004KT 330V030 9999 FEW060 BKN070 08/03 Q1002 NOSIG
Conditions at: LOWS (SALZBURG AIRPORT, AT) observed 1950 UTC 25 February 2020
Temperature: 8.0°C (46°F)
Dewpoint: 3.0°C (37°F) [RH = 71%]
Pressure (altimeter): 29.59 inches Hg (1002.0 mb)
Winds: from the N (360 degrees) at 5 MPH (4 knots; 2.1 m/s)
Visibility: 6 or more miles (10+ km)
Ceiling: 7000 feet AGL
Clouds: few clouds at 6000 feet AGL
broken clouds at 7000 feet AGL
Weather: no significant weather observed at this time

METAR text: LOWS 251920Z 35005KT 320V020 9999 SCT050 BKN070 09/03 Q1002 NOSIG
Conditions at: LOWS (SALZBURG AIRPORT, AT) observed 1920 UTC 25 February 2020
Temperature: 9.0°C (48°F)
Dewpoint: 3.0°C (37°F) [RH = 66%]
Pressure (altimeter): 29.59 inches Hg (1002.0 mb)
Winds: from the N (350 degrees) at 6 MPH (5 knots; 2.6 m/s)
Visibility: 6 or more miles (10+ km)
Ceiling: 7000 feet AGL
Clouds: scattered clouds at 5000 feet AGL
broken clouds at 7000 feet AGL
Weather: no significant weather observed at this time

METAR text: LOWS 251850Z 32007KT 290V020 9999 FEW036 SCT040 BKN050 10/03 Q1003 NOSIG
Conditions at: LOWS (SALZBURG AIRPORT, AT) observed 1850 UTC 25 February 2020
Temperature: 10.0°C (50°F)
Dewpoint: 3.0°C (37°F) [RH = 62%]
Pressure (altimeter): 29.62 inches Hg (1003.0 mb)
Winds: from the NW (320 degrees) at 8 MPH (7 knots; 3.6 m/s)
Visibility: 6 or more miles (10+ km)
Ceiling: 5000 feet AGL
Clouds: few clouds at 3600 feet AGL
scattered clouds at 4000 feet AGL
broken clouds at 5000 feet AGL
Weather: no significant weather observed at this time

METAR text: LOWS 251820Z 32006KT 9999 FEW040 BKN060 09/03 Q1003 NOSIG
Conditions at: LOWS (SALZBURG AIRPORT, AT) observed 1820 UTC 25 February 2020
Temperature: 9.0°C (48°F)
Dewpoint: 3.0°C (37°F) [RH = 66%]
Pressure (altimeter): 29.62 inches Hg (1003.0 mb)
Winds: from the NW (320 degrees) at 7 MPH (6 knots; 3.1 m/s)
Visibility: 6 or more miles (10+ km)
Ceiling: 6000 feet AGL
Clouds: few clouds at 4000 feet AGL
broken clouds at 6000 feet AGL
Weather: no significant weather observed at this time

METAR text: LOWS 251750Z 33004KT 9999 FEW050 SCT080 BKN100 09/03 Q1003 NOSIG
Conditions at: LOWS (SALZBURG AIRPORT, AT) observed 1750 UTC 25 February 2020
Temperature: 9.0°C (48°F)
Dewpoint: 3.0°C (37°F) [RH = 66%]
Pressure (altimeter): 29.62 inches Hg (1003.0 mb)
Winds: from the NNW (330 degrees) at 5 MPH (4 knots; 2.1 m/s)
Visibility: 6 or more miles (10+ km)
Ceiling: 10000 feet AGL
Clouds: few clouds at 5000 feet AGL
scattered clouds at 8000 feet AGL
broken clouds at 10000 feet AGL
Weather: no significant weather observed at this time

METAR text: LOWS 251720Z 32004KT 290V350 9999 FEW070 BKN090 10/02 Q1003 NOSIG
Conditions at: LOWS (SALZBURG AIRPORT, AT) observed 1720 UTC 25 February 2020
Temperature: 10.0°C (50°F)
Dewpoint: 2.0°C (36°F) [RH = 57%]
Pressure (altimeter): 29.62 inches Hg (1003.0 mb)
Winds: from the NW (320 degrees) at 5 MPH (4 knots; 2.1 m/s)
Visibility: 6 or more miles (10+ km)
Ceiling: 9000 feet AGL
Clouds: few clouds at 7000 feet AGL
broken clouds at 9000 feet AGL
Weather: no significant weather observed at this time

METAR text: LOWS 251650Z 33004KT 9999 FEW050 BKN100 10/02 Q1003 NOSIG
Conditions at: LOWS (SALZBURG AIRPORT, AT) observed 1650 UTC 25 February 2020
Temperature: 10.0°C (50°F)
Dewpoint: 2.0°C (36°F) [RH = 57%]
Pressure (altimeter): 29.62 inches Hg (1003.0 mb)
Winds: from the NNW (330 degrees) at 5 MPH (4 knots; 2.1 m/s)
Visibility: 6 or more miles (10+ km)
Ceiling: 10000 feet AGL
Clouds: few clouds at 5000 feet AGL
broken clouds at 10000 feet AGL
Weather: no significant weather observed at this time

METAR text: LOWS 251620Z 02005KT 9999 FEW060 BKN100 11/02 Q1003 NOSIG
Conditions at: LOWS (SALZBURG AIRPORT, AT) observed 1620 UTC 25 February 2020
Temperature: 11.0°C (52°F)
Dewpoint: 2.0°C (36°F) [RH = 54%]
Pressure (altimeter): 29.62 inches Hg (1003.0 mb)
Winds: from the NNE (20 degrees) at 6 MPH (5 knots; 2.6 m/s)
Visibility: 6 or more miles (10+ km)
Ceiling: 10000 feet AGL
Clouds: few clouds at 6000 feet AGL
broken clouds at 10000 feet AGL
Weather: no significant weather observed at this time

METAR text: LOWS 251550Z 36006KT 9999 FEW110 BKN130 11/02 Q1003 NOSIG
Conditions at: LOWS (SALZBURG AIRPORT, AT) observed 1550 UTC 25 February 2020
Temperature: 11.0°C (52°F)
Dewpoint: 2.0°C (36°F) [RH = 54%]
Pressure (altimeter): 29.62 inches Hg (1003.0 mb)
Winds: from the N (360 degrees) at 7 MPH (6 knots; 3.1 m/s)
Visibility: 6 or more miles (10+ km)
Ceiling: 13000 feet AGL
Clouds: few clouds at 11000 feet AGL
broken clouds at 13000 feet AGL
Weather: no significant weather observed at this time

METAR text: LOWS 251520Z 33006KT 310V010 9999 FEW120 BKN150 11/02 Q1003 NOSIG
Conditions at: LOWS (SALZBURG AIRPORT, AT) observed 1520 UTC 25 February 2020
Temperature: 11.0°C (52°F)
Dewpoint: 2.0°C (36°F) [RH = 54%]
Pressure (altimeter): 29.62 inches Hg (1003.0 mb)
Winds: from the NNW (330 degrees) at 7 MPH (6 knots; 3.1 m/s)
Visibility: 6 or more miles (10+ km)
Ceiling: 15000 feet AGL
Clouds: few clouds at 12000 feet AGL
broken clouds at 15000 feet AGL
Weather: no significant weather observed at this time

METAR text: LOWS 251450Z 04003KT 350V080 9999 FEW120 BKN150 10/05 Q1003 NOSIG
Conditions at: LOWS (SALZBURG AIRPORT, AT) observed 1450 UTC 25 February 2020
Temperature: 10.0°C (50°F)
Dewpoint: 5.0°C (41°F) [RH = 71%]
Pressure (altimeter): 29.62 inches Hg (1003.0 mb)
Winds: from the NE (40 degrees) at 3 MPH (3 knots; 1.5 m/s)
Visibility: 6 or more miles (10+ km)
Ceiling: 15000 feet AGL
Clouds: few clouds at 12000 feet AGL
broken clouds at 15000 feet AGL
Weather: no significant weather observed at this time

METAR text: LOWS 251420Z 13004KT 090V160 9999 FEW120 BKN140 10/05 Q1003 NOSIG
Conditions at: LOWS (SALZBURG AIRPORT, AT) observed 1420 UTC 25 February 2020
Temperature: 10.0°C (50°F)
Dewpoint: 5.0°C (41°F) [RH = 71%]
Pressure (altimeter): 29.62 inches Hg (1003.0 mb)
Winds: from the SE (130 degrees) at 5 MPH (4 knots; 2.1 m/s)
Visibility: 6 or more miles (10+ km)
Ceiling: 14000 feet AGL
Clouds: few clouds at 12000 feet AGL
broken clouds at 14000 feet AGL
Weather: no significant weather observed at this time

METAR text: LOWS 251350Z 16004KT 120V180 9999 FEW130 BKN150 11/05 Q1003 NOSIG
Conditions at: LOWS (SALZBURG AIRPORT, AT) observed 1350 UTC 25 February 2020
Temperature: 11.0°C (52°F)
Dewpoint: 5.0°C (41°F) [RH = 66%]
Pressure (altimeter): 29.62 inches Hg (1003.0 mb)
Winds: from the SSE (160 degrees) at 5 MPH (4 knots; 2.1 m/s)
Visibility: 6 or more miles (10+ km)
Ceiling: 15000 feet AGL
Clouds: few clouds at 13000 feet AGL
broken clouds at 15000 feet AGL
Weather: no significant weather observed at this time

METAR text: LOWS 251320Z 18006KT 150V210 9999 FEW120 BKN140 10/05 Q1004 NOSIG
Conditions at: LOWS (SALZBURG AIRPORT, AT) observed 1320 UTC 25 February 2020
Temperature: 10.0°C (50°F)
Dewpoint: 5.0°C (41°F) [RH = 71%]
Pressure (altimeter): 29.65 inches Hg (1004.0 mb)
Winds: from the S (180 degrees) at 7 MPH (6 knots; 3.1 m/s)
Visibility: 6 or more miles (10+ km)
Ceiling: 14000 feet AGL
Clouds: few clouds at 12000 feet AGL
broken clouds at 14000 feet AGL
Weather: no significant weather observed at this time

METAR text: LOWS 251250Z 16006KT 9999 FEW130 BKN140 10/05 Q1004 NOSIG
Conditions at: LOWS (SALZBURG AIRPORT, AT) observed 1250 UTC 25 February 2020
Temperature: 10.0°C (50°F)
Dewpoint: 5.0°C (41°F) [RH = 71%]
Pressure (altimeter): 29.65 inches Hg (1004.0 mb)
Winds: from the SSE (160 degrees) at 7 MPH (6 knots; 3.1 m/s)
Visibility: 6 or more miles (10+ km)
Ceiling: 14000 feet AGL
Clouds: few clouds at 13000 feet AGL
broken clouds at 14000 feet AGL
Weather: no significant weather observed at this time

METAR text: LOWS 251220Z 17005KT CAVOK 10/04 Q1004 NOSIG
Conditions at: LOWS (SALZBURG AIRPORT, AT) observed 1220 UTC 25 February 2020
Temperature: 10.0°C (50°F)
Dewpoint: 4.0°C (39°F) [RH = 66%]
Pressure (altimeter): 29.65 inches Hg (1004.0 mb)
Winds: from the S (170 degrees) at 6 MPH (5 knots; 2.6 m/s)
Visibility: 6 or more miles (10+ km)
Ceiling: ceiling and visibility are OK
Clouds: unknown
Weather: no significant weather observed at this time

METAR text: LOWS 251150Z 17005KT CAVOK 10/04 Q1005 NOSIG
Conditions at: LOWS (SALZBURG AIRPORT, AT) observed 1150 UTC 25 February 2020
Temperature: 10.0°C (50°F)
Dewpoint: 4.0°C (39°F) [RH = 66%]
Pressure (altimeter): 29.68 inches Hg (1005.0 mb)
Winds: from the S (170 degrees) at 6 MPH (5 knots; 2.6 m/s)
Visibility: 6 or more miles (10+ km)
Ceiling: ceiling and visibility are OK
Clouds: unknown
Weather: no significant weather observed at this time

Forecast for: LOWS (SALZBURG AIRPORT, AT)
Text: TAF LOWS 262315Z 2700/2724 27006KT 9999 SCT040 BKN070 TX07/2713Z TN01/2706Z
Forecast period: 0000 to 1600 UTC 27 February 2020
Forecast type: FROM: standard forecast or significant change
Winds: from the W (270 degrees) at 7 MPH (6 knots; 3.1 m/s)
Visibility: 6 or more miles 10+ km)
Ceiling: 7000 feet AGL
Clouds: scattered clouds at 4000 feet AGL
broken clouds at 7000 feet AGL
Weather: no significant weather forecast for this period
Text: TEMPO 2700/2702 28010KT -SHSN SCT012 BKN020
Forecast period: 0000 to 0200 UTC 27 February 2020
Forecast type: TEMPORARY: The following changes expected for less than half the time period
Winds: from the W (280 degrees) at 12 MPH (10 knots; 5.1 m/s)
Visibility: missing
Ceiling: 2000 feet AGL
Clouds: scattered clouds at 1200 feet AGL
broken clouds at 2000 feet AGL
Weather: -SHSN  (light snow showers)
Text: BECMG 2716/2718 -RA
Forecast period: 1600 UTC 27 February 2020 to 0000 UTC 28 February 2020
Forecast type: BECOMING: Conditions expected to become as follows by 1800 UTC 27 February 2020
Winds: from the W (270 degrees) at 7 MPH (6 knots; 3.1 m/s)
Visibility: 6 or more miles 10+ km)
Ceiling: 7000 feet AGL
Clouds: scattered clouds at 4000 feet AGL
broken clouds at 7000 feet AGL
Weather: -RA  (light rain)
Text: TEMPO 2718/2724 29015G35KT 4500 -SNRA SCT012 BKN020
Forecast period: 1800 UTC 27 February 2020 to 0000 UTC 28 February 2020
Forecast type: TEMPORARY: The following changes expected for less than half the time period
Winds: from the WNW (290 degrees) at 17 MPH (15 knots; 7.7 m/s)
gusting to 40 MPH (35 knots; 18.0 m/s)
Visibility: 2.80 miles (4.51 km)
Ceiling: 2000 feet AGL
Clouds: scattered clouds at 1200 feet AGL
broken clouds at 2000 feet AGL
Weather: -SN -RA  (light snow, light rain)